Time;durP1;ratioP1;P1;durP2;ratioP2;P2;SDS_P1;SDS_P2;PMS_P1;PMS_P2;Temp;Humidity;BMP_temperature;BMP_pressure;BME280_temperature;BME280_humidity;BME280_pressure;Samples;Min_cycle;Max_cycle;Signal;HPM_P1;HPM_P2
2021/12/20 00:01:20;;;;;;;18.25;10.95;;;;;;;6.13;58.12;101205.41;4969687;28;20054;-85
2021/12/20 00:03:46;;;;;;;17.75;10.52;;;;;;;5.60;58.36;101125.13;4986943;28;20149;-86
2021/12/20 00:06:13;;;;;;;18.80;11.23;;;;;;;6.76;58.25;101329.97;4969764;28;20568;-86
2021/12/20 00:08:40;;;;;;;15.10;11.02;;;;;;;5.31;58.94;101071.56;4970049;28;20234;-86
2021/12/20 00:11:10;;;;;;;20.10;11.95;;;;;;;6.15;58.52;101207.97;4974195;28;20498;-86
2021/12/20 00:13:37;;;;;;;17.30;11.98;;;;;;;5.49;58.73;101102.09;4973386;28;20137;-85
2021/12/20 00:16:04;;;;;;;13.35;9.70;;;;;;;6.85;59.04;101311.78;4973796;28;20075;-86
2021/12/20 00:18:30;;;;;;;18.83;11.68;;;;;;;5.48;58.01;101096.91;4973356;28;20077;-85
2021/12/20 00:20:57;;;;;;;16.08;11.32;;;;;;;5.55;58.47;101129.81;4991101;28;20090;-87
2021/12/20 00:23:28;;;;;;;20.25;11.00;;;;;;;5.31;58.48;101082.94;4973895;28;20136;-86
2021/12/20 00:25:57;;;;;;;15.68;11.52;;;;;;;6.44;59.09;101271.28;4990678;28;20141;-89
2021/12/20 00:28:23;;;;;;;18.50;11.60;;;;;;;5.35;58.70;101095.00;4990595;28;20061;-85
2021/12/20 00:30:50;;;;;;;17.48;12.15;;;;;;;4.91;59.65;101021.28;4990158;28;20047;-85
2021/12/20 00:33:17;;;;;;;17.65;11.52;;;;;;;5.88;59.45;101177.03;4990408;28;20050;-87
2021/12/20 00:35:44;;;;;;;15.57;11.30;;;;;;;5.16;59.54;101047.00;4973241;28;20089;-86
2021/12/20 00:40:57;;;;;;;18.80;12.13;;;;;;;6.40;59.87;101273.25;4990296;28;20152;-84
2021/12/20 00:43:24;;;;;;;16.85;12.43;;;;;;;5.11;59.93;101044.63;4972888;28;20307;-84
2021/12/20 00:45:51;;;;;;;17.85;12.07;;;;;;;5.80;60.07;101166.09;4990729;28;20113;-85
2021/12/20 00:48:23;;;;;;;16.95;12.57;;;;;;;5.90;60.18;101166.41;4990629;28;20062;-84
2021/12/20 00:50:50;;;;;;;16.42;12.27;;;;;;;5.37;59.94;101083.53;4990619;28;20050;-85
2021/12/20 00:53:20;;;;;;;14.93;11.25;;;;;;;6.49;59.72;101259.50;4972708;28;20046;-85
2021/12/20 00:55:48;;;;;;;14.85;11.88;;;;;;;5.52;60.09;101108.94;4990174;28;20506;-86
2021/12/20 00:58:15;;;;;;;16.52;11.90;;;;;;;6.34;59.95;101250.72;4972514;28;20490;-86
2021/12/20 01:00:47;;;;;;;18.83;11.73;;;;;;;5.93;59.93;101174.13;4972417;28;20108;-86
2021/12/20 01:03:15;;;;;;;19.48;12.63;;;;;;;5.09;59.77;101027.25;4972306;28;20057;-85
2021/12/20 01:05:42;;;;;;;15.98;12.27;;;;;;;5.50;60.24;101079.22;4972730;28;20200;-84
2021/12/20 01:08:14;;;;;;;16.80;11.73;;;;;;;4.97;60.34;100977.97;4974067;28;20069;-88
2021/12/20 01:10:46;;;;;;;20.33;11.95;;;;;;;4.93;59.47;100986.06;4976755;28;20050;-86
2021/12/20 01:13:15;;;;;;;15.00;11.87;;;;;;;6.62;60.04;101267.50;4972667;28;20058;-87
2021/12/20 01:15:48;;;;;;;16.85;12.13;;;;;;;5.95;60.00;101169.66;4972173;28;20085;-85
2021/12/20 01:18:16;;;;;;;14.40;11.32;;;;;;;5.37;59.71;101062.47;4972162;28;20054;-87
2021/12/20 01:20:46;;;;;;;14.18;11.65;;;;;;;5.83;59.98;101165.09;4971166;28;20090;-85
2021/12/20 01:23:16;;;;;;;15.18;12.07;;;;;;;6.15;60.13;101208.81;4972003;28;20077;-84
2021/12/20 01:25:44;;;;;;;16.58;11.88;;;;;;;4.94;60.53;101018.47;4971845;28;20049;-85
2021/12/20 01:28:11;;;;;;;18.55;11.95;;;;;;;6.16;60.90;101210.50;4972073;28;20179;-85
2021/12/20 01:30:40;;;;;;;14.18;11.80;;;;;;;4.77;60.41;100990.53;4972077;28;20147;-86
2021/12/20 01:33:12;;;;;;;14.30;11.32;;;;;;;4.77;60.35;100982.63;4988995;28;20585;-85
2021/12/20 01:35:39;;;;;;;16.17;11.45;;;;;;;5.64;60.59;101134.56;4989105;28;20050;-85
2021/12/20 01:38:07;;;;;;;13.93;11.25;;;;;;;4.95;60.35;101025.41;4972198;28;20462;-84
2021/12/20 01:40:35;;;;;;;16.70;11.13;;;;;;;4.98;60.53;101024.41;4988703;28;20148;-85
2021/12/20 01:43:04;;;;;;;17.63;11.75;;;;;;;4.22;60.37;100899.94;4971764;28;20145;-83
2021/12/20 01:45:31;;;;;;;14.88;11.27;;;;;;;5.14;60.03;101051.50;4971379;28;20090;-85
2021/12/20 01:48:03;;;;;;;13.27;10.68;;;;;;;5.63;60.43;101122.34;4988554;28;20477;-85
2021/12/20 01:53:20;;;;;;;12.43;11.07;;;;;;;4.71;60.64;100962.81;4989044;28;20058;-85
2021/12/20 01:55:48;;;;;;;14.23;11.30;;;;;;;4.79;60.61;100993.91;4988818;28;20065;-83
2021/12/20 01:58:14;;;;;;;16.70;13.27;;;;;;;5.68;61.47;101138.72;4971599;28;20141;-84
2021/12/20 02:03:29;;;;;;;19.90;14.27;;;;;;;4.32;61.28;100902.88;4988739;28;20062;-86
2021/12/20 02:05:59;;;;;;;16.98;14.23;;;;;;;5.55;61.91;101101.69;4971373;28;20062;-84
2021/12/20 02:08:29;;;;;;;14.95;13.40;;;;;;;5.22;62.09;101049.28;4988860;28;20078;-86
2021/12/20 02:11:03;;;;;;;15.95;14.18;;;;;;;4.99;61.97;101015.56;4971648;28;20054;-85
2021/12/20 02:13:30;;;;;;;16.73;14.98;;;;;;;5.30;61.93;101046.19;4971532;28;20438;-85
2021/12/20 02:15:58;;;;;;;17.90;15.02;;;;;;;5.35;61.91;101068.66;4988756;28;20542;-86
2021/12/20 02:18:26;;;;;;;19.88;15.20;;;;;;;5.41;61.91;101063.97;4988546;28;20079;-87
2021/12/20 02:20:52;;;;;;;18.27;14.98;;;;;;;5.18;61.70;101026.72;4970975;28;20057;-86
2021/12/20 02:23:19;;;;;;;18.45;14.63;;;;;;;5.45;61.63;101066.31;4971334;28;20054;-87
2021/12/20 02:25:46;;;;;;;17.30;13.70;;;;;;;4.70;61.86;100941.84;4971177;28;20096;-87
2021/12/20 02:28:15;;;;;;;18.45;14.52;;;;;;;4.36;61.50;100885.97;4988363;28;20494;-86
2021/12/20 02:38:44;;;;;;;17.00;12.48;;;;;;;5.68;60.88;101088.66;4988170;28;20240;-87
2021/12/20 02:41:15;;;;;;;16.60;13.30;;;;;;;6.02;60.68;101146.38;4988328;28;20153;-86
2021/12/20 02:43:54;;;;;;;15.40;12.60;;;;;;;6.17;60.57;101166.53;4971138;28;20066;-86
2021/12/20 02:48:58;;;;;;;15.27;12.38;;;;;;;4.27;59.79;100849.72;4988889;28;20163;-86
2021/12/20 02:51:28;;;;;;;14.18;11.80;;;;;;;4.55;60.31;100893.63;4989629;28;20046;-84
2021/12/20 02:53:57;;;;;;;16.08;12.18;;;;;;;4.28;60.27;100841.75;4989661;28;20074;-86
2021/12/20 02:56:25;;;;;;;16.27;12.27;;;;;;;4.37;60.51;100861.41;4972958;28;20081;-86
2021/12/20 02:58:52;;;;;;;16.27;11.52;;;;;;;5.95;60.49;101122.22;4992934;28;20050;-84
2021/12/20 03:01:20;;;;;;;12.80;11.07;;;;;;;5.15;60.03;100984.78;4979900;28;20053;-85
2021/12/20 03:03:50;;;;;;;14.00;12.50;;;;;;;5.32;60.43;101018.00;5004493;28;20042;-87
2021/12/20 03:06:20;;;;;;;14.90;12.18;;;;;;;4.85;60.48;100930.41;4976691;28;20054;-87
2021/12/20 03:08:50;;;;;;;15.10;11.85;;;;;;;4.19;60.47;100818.63;4998037;28;20046;-85
2021/12/20 03:11:20;;;;;;;16.77;11.90;;;;;;;6.08;60.52;101125.75;4971566;28;20050;-85
2021/12/20 03:13:51;;;;;;;13.07;11.70;;;;;;;4.27;60.19;100833.94;4972101;28;20054;-85
2021/12/20 03:16:18;;;;;;;12.45;11.15;;;;;;;5.25;60.71;101012.25;4970477;28;20082;-85
2021/12/20 03:18:45;;;;;;;14.82;12.43;;;;;;;4.87;60.32;100927.69;4970798;28;20050;-87
2021/12/20 03:21:12;;;;;;;12.48;11.18;;;;;;;5.60;60.16;101061.06;4988264;28;20108;-84
2021/12/20 03:23:39;;;;;;;14.15;12.10;;;;;;;5.24;60.35;101010.56;4970592;28;20109;-84
2021/12/20 03:26:06;;;;;;;14.52;10.90;;;;;;;4.53;60.31;100892.88;4970498;28;20446;-82
2021/12/20 03:28:35;;;;;;;12.75;10.00;;;;;;;5.24;60.51;101005.31;4988378;28;20062;-84
2021/12/20 03:31:02;;;;;;;13.30;11.23;;;;;;;4.43;60.27;100886.47;4970456;28;20498;-84
2021/12/20 03:33:29;;;;;;;12.05;10.73;;;;;;;5.01;60.42;100976.88;4970461;28;20054;-85
2021/12/20 03:35:56;;;;;;;12.48;10.23;;;;;;;4.21;60.16;100860.59;4970452;28;20054;-85
2021/12/20 03:38:22;;;;;;;12.95;10.15;;;;;;;3.95;60.67;100815.66;4969943;28;20479;-84
2021/12/20 03:40:49;;;;;;;12.88;9.65;;;;;;;4.44;60.54;100896.91;4970094;28;20084;-86
2021/12/20 03:43:17;;;;;;;12.68;11.38;;;;;;;4.89;60.74;100979.28;4970317;28;20078;-87
2021/12/20 03:45:49;;;;;;;13.95;11.25;;;;;;;5.00;60.56;101007.59;4990955;28;20054;-86
2021/12/20 03:48:15;;;;;;;19.58;12.65;;;;;;;5.37;60.64;101057.22;4974162;28;20052;-83
2021/12/20 03:50:42;;;;;;;13.75;12.18;;;;;;;5.17;61.00;101025.03;4991025;28;20124;-84
2021/12/20 03:53:09;;;;;;;17.08;13.55;;;;;;;5.02;61.59;100999.59;4991800;28;20061;-85
2021/12/20 03:55:39;;;;;;;17.90;15.23;;;;;;;3.75;61.98;100802.84;4973911;28;20133;-88
2021/12/20 03:58:09;;;;;;;19.48;16.60;;;;;;;3.64;62.30;100804.28;4974082;28;20054;-84
2021/12/20 04:00:36;;;;;;;20.45;16.40;;;;;;;3.89;62.72;100844.91;4973461;28;20054;-86
2021/12/20 04:03:09;;;;;;;21.10;17.75;;;;;;;4.30;63.35;100915.25;4991483;28;20050;-86
2021/12/20 04:05:39;;;;;;;22.20;18.38;;;;;;;4.46;63.88;100966.00;4973493;28;20050;-84
2021/12/20 04:08:06;;;;;;;21.30;18.27;;;;;;;4.95;64.20;101059.63;4973885;28;20533;-84
2021/12/20 04:10:38;;;;;;;23.75;19.75;;;;;;;4.20;64.25;100940.34;4974538;28;20081;-85
2021/12/20 04:13:08;;;;;;;21.60;19.40;;;;;;;3.53;65.33;100848.66;4973878;28;20049;-86
2021/12/20 04:15:38;;;;;;;22.10;19.75;;;;;;;3.99;65.88;100929.28;4973967;28;20054;-85
2021/12/20 04:18:05;;;;;;;26.73;20.20;;;;;;;3.95;65.74;100939.09;4973361;28;20101;-86
2021/12/20 04:20:32;;;;;;;24.63;19.70;;;;;;;3.21;66.03;100814.56;4973325;28;20038;-85
2021/12/20 04:23:00;;;;;;;23.90;19.80;;;;;;;2.95;66.00;100768.75;4973631;28;20050;-86
2021/12/20 04:25:26;;;;;;;26.20;20.67;;;;;;;3.03;66.44;100796.34;4973439;28;20050;-87
2021/12/20 04:27:55;;;;;;;22.90;19.77;;;;;;;3.14;66.28;100823.69;4973129;28;20545;-85
2021/12/20 04:30:22;;;;;;;24.13;21.52;;;;;;;3.35;66.35;100847.03;4972672;28;20584;-86
2021/12/20 04:32:49;;;;;;;22.05;19.58;;;;;;;3.45;66.58;100856.13;4973322;28;20054;-85
2021/12/20 04:35:16;;;;;;;23.60;20.40;;;;;;;4.41;66.86;101020.63;4972912;28;20402;-84
2021/12/20 04:37:45;;;;;;;23.67;20.30;;;;;;;3.38;66.96;100865.28;4973246;28;20084;-86
2021/12/20 04:40:18;;;;;;;28.00;21.50;;;;;;;3.56;67.23;100901.00;4990596;28;20054;-85
2021/12/20 04:42:44;;;;;;;;;;;;;;;4.54;67.15;101051.47;4973587;28;20463;-86
2021/12/20 04:45:11;;;;;;;24.03;20.20;;;;;;;4.13;67.29;100988.97;4990663;28;20342;-85
2021/12/20 04:47:38;;;;;;;27.27;19.37;;;;;;;3.36;66.63;100862.72;4972812;28;20050;-84
2021/12/20 04:50:06;;;;;;;20.60;17.70;;;;;;;3.71;67.00;100915.06;4990886;28;20053;-85
2021/12/20 04:52:33;;;;;;;21.63;17.70;;;;;;;2.58;66.22;100743.69;4972594;28;20598;-86
2021/12/20 04:55:02;;;;;;;22.37;17.87;;;;;;;3.46;65.98;100881.44;4989912;28;20670;-86
2021/12/20 04:57:28;;;;;;;18.80;15.90;;;;;;;4.37;65.81;101013.88;4972131;28;20104;-85
2021/12/20 04:59:55;;;;;;;18.07;15.67;;;;;;;2.64;65.51;100730.22;4990363;28;20078;-84
2021/12/20 05:02:22;;;;;;;19.37;15.43;;;;;;;3.52;65.20;100859.25;4972948;28;20089;-85
2021/12/20 05:04:49;;;;;;;19.57;17.50;;;;;;;3.48;65.58;100863.81;4973140;28;20504;-84
2021/12/20 05:07:16;;;;;;;18.73;16.43;;;;;;;3.49;65.69;100876.00;4973428;28;20525;-85
2021/12/20 05:09:43;;;;;;;24.00;15.77;;;;;;;2.96;65.42;100790.56;4973628;28;20129;-85
2021/12/20 05:12:11;;;;;;;18.27;15.27;;;;;;;2.91;64.97;100801.34;4991830;28;20073;-85
2021/12/20 05:14:40;;;;;;;17.77;14.70;;;;;;;2.90;64.82;100797.00;4976796;28;20057;-91
2021/12/20 05:17:09;;;;;;;17.20;15.40;;;;;;;2.45;65.08;100721.66;4977884;28;20075;-85
2021/12/20 05:19:36;;;;;;;17.17;14.87;;;;;;;4.49;65.13;101055.22;4990724;28;20057;-84
2021/12/20 05:22:05;;;;;;;19.50;17.37;;;;;;;3.72;65.71;100936.94;5009239;28;20651;-87
2021/12/20 05:24:32;;;;;;;23.27;17.90;;;;;;;2.91;65.96;100803.09;5008009;28;20675;-84
2021/12/20 05:26:59;;;;;;;20.77;18.07;;;;;;;3.19;66.23;100847.91;4977733;28;20143;-84
2021/12/20 05:29:26;;;;;;;25.17;18.00;;;;;;;2.64;66.48;100768.72;4990516;28;20390;-85
2021/12/20 05:31:53;;;;;;;20.87;18.63;;;;;;;3.50;66.97;100911.00;5007889;28;20081;-83
2021/12/20 05:34:21;;;;;;;22.60;18.87;;;;;;;4.32;67.08;101047.44;4994580;28;20101;-85
2021/12/20 05:36:48;;;;;;;22.07;19.63;;;;;;;3.88;67.24;100968.44;4986952;28;20046;-83
2021/12/20 05:39:15;;;;;;;25.33;20.37;;;;;;;4.10;67.33;101020.63;4987165;28;20142;-86
2021/12/20 05:41:41;;;;;;;24.80;20.40;;;;;;;4.29;67.47;101052.84;4987889;28;20162;-86
2021/12/20 05:44:08;;;;;;;23.97;20.93;;;;;;;4.32;67.53;101065.84;4988864;28;20046;-84
2021/12/20 05:46:35;;;;;;;26.77;21.63;;;;;;;4.27;67.77;101044.19;4987232;28;20108;-84
2021/12/20 05:49:02;;;;;;;26.37;22.50;;;;;;;3.00;67.77;100836.69;4986996;28;20047;-84
2021/12/20 05:51:30;;;;;;;24.70;21.83;;;;;;;3.17;67.77;100877.75;4987941;28;20417;-84
2021/12/20 05:53:56;;;;;;;26.23;21.73;;;;;;;2.64;68.49;100803.63;4988063;28;20050;-84
2021/12/20 05:56:23;;;;;;;24.90;21.63;;;;;;;3.06;67.89;100873.09;4988069;28;20046;-84
2021/12/20 05:58:50;;;;;;;29.10;22.33;;;;;;;3.03;68.33;100854.88;4986633;28;20105;-84
2021/12/20 06:01:16;;;;;;;29.73;24.30;;;;;;;3.56;68.08;100943.00;4987630;28;20589;-83
2021/12/20 06:03:43;;;;;;;26.67;23.33;;;;;;;3.54;67.67;100941.38;4991278;28;20077;-86
2021/12/20 06:06:11;;;;;;;29.05;23.45;;;;;;;3.19;68.82;100892.50;5007975;28;20060;-86
2021/12/20 06:08:41;;;;;;;26.57;23.77;;;;;;;2.55;67.96;100770.91;5007157;28;20050;-86
2021/12/20 06:11:09;;;;;;;27.55;23.27;;;;;;;3.03;68.47;100873.25;4993247;28;20064;-85
2021/12/20 06:13:36;;;;;;;27.33;24.27;;;;;;;3.40;68.23;100931.66;5019300;28;20037;-91
2021/12/20 06:16:03;;;;;;;30.20;26.47;;;;;;;3.11;68.65;100894.69;5032883;28;20110;-84
2021/12/20 06:18:30;;;;;;;31.35;26.88;;;;;;;2.63;68.73;100812.44;4996843;28;20058;-84
2021/12/20 06:20:57;;;;;;;31.33;27.90;;;;;;;3.28;68.75;100933.16;4990345;28;20076;-85
2021/12/20 06:23:26;;;;;;;35.23;27.57;;;;;;;3.05;68.96;100899.41;4990459;28;20053;-84
2021/12/20 06:25:54;;;;;;;34.13;27.90;;;;;;;3.55;68.63;101004.31;5000304;28;20556;-83
2021/12/20 06:28:21;;;;;;;34.53;29.20;;;;;;;2.59;69.29;100854.59;4970187;28;20054;-85
2021/12/20 06:30:48;;;;;;;36.25;28.33;;;;;;;3.41;69.24;100981.41;4987349;28;20050;-85
2021/12/20 06:33:15;;;;;;;30.50;26.70;;;;;;;4.04;69.48;101096.25;4970499;28;20077;-85
2021/12/20 06:35:42;;;;;;;33.27;28.87;;;;;;;2.68;69.42;100881.19;4970106;28;20070;-86
2021/12/20 06:38:11;;;;;;;32.93;29.43;;;;;;;3.88;69.45;101073.50;4970326;28;20329;-85
2021/12/20 06:40:38;;;;;;;32.80;28.67;;;;;;;2.34;69.99;100822.66;4970089;28;20054;-87
2021/12/20 06:43:05;;;;;;;32.83;28.83;;;;;;;4.04;69.66;101106.75;4969530;28;20552;-85
2021/12/20 06:45:33;;;;;;;33.67;27.65;;;;;;;4.07;69.93;101119.72;4987606;28;20054;-84
2021/12/20 06:48:00;;;;;;;32.80;27.93;;;;;;;3.88;69.81;101076.97;4970001;28;20563;-84
2021/12/20 06:50:27;;;;;;;32.50;28.37;;;;;;;2.80;69.99;100915.59;4969990;28;20100;-83
2021/12/20 06:52:56;;;;;;;35.40;30.33;;;;;;;3.26;70.21;101003.22;4969720;28;20515;-85
2021/12/20 06:55:23;;;;;;;32.05;28.55;;;;;;;3.94;70.50;101142.31;4969852;28;20050;-84
2021/12/20 06:57:51;;;;;;;37.03;29.73;;;;;;;2.66;70.48;100932.00;4986749;28;20082;-85
2021/12/20 07:00:20;;;;;;;35.30;29.23;;;;;;;2.10;70.81;100844.84;4989042;28;20422;-84
2021/12/20 07:02:47;;;;;;;33.43;28.47;;;;;;;2.17;70.23;100848.84;5006518;28;20058;-85
2021/12/20 07:05:14;;;;;;;34.70;28.90;;;;;;;2.70;71.18;100952.75;4989309;28;20526;-86
2021/12/20 07:07:41;;;;;;;37.25;30.20;;;;;;;3.73;71.06;101138.19;4987948;28;20049;-84
2021/12/20 07:10:09;;;;;;;33.53;30.00;;;;;;;2.95;70.98;100994.31;4988343;28;20347;-86
2021/12/20 07:12:37;;;;;;;36.67;30.70;;;;;;;3.04;71.16;101006.13;5007117;28;20053;-82
2021/12/20 07:15:06;;;;;;;33.70;30.07;;;;;;;2.96;70.88;101013.50;5007713;28;20050;-85
2021/12/20 07:17:33;;;;;;;38.03;31.00;;;;;;;2.53;71.09;100939.66;5011307;28;20255;-84
2021/12/20 07:19:59;;;;;;;38.78;30.73;;;;;;;3.02;70.65;101020.22;4995403;28;20054;-85
2021/12/20 07:22:29;;;;;;;33.00;29.40;;;;;;;2.89;70.95;101019.97;4996744;28;20069;-84
2021/12/20 07:24:55;;;;;;;36.28;31.20;;;;;;;2.93;71.71;101032.03;4993336;28;20058;-86
2021/12/20 07:27:22;;;;;;;37.03;31.80;;;;;;;2.20;71.78;100936.91;4974788;28;20136;-85
2021/12/20 07:29:49;;;;;;;37.90;30.53;;;;;;;2.91;71.83;101044.34;4972645;28;20562;-86
2021/12/20 07:32:15;;;;;;;35.33;31.63;;;;;;;2.91;71.78;101044.34;4988027;28;20581;-85
2021/12/20 07:34:42;;;;;;;37.27;32.00;;;;;;;2.23;71.85;100934.97;4969504;28;20142;-84
2021/12/20 07:37:09;;;;;;;36.53;30.57;;;;;;;3.04;71.69;101076.94;4985345;28;20124;-86
2021/12/20 07:39:38;;;;;;;37.40;30.70;;;;;;;3.57;72.01;101181.00;4985366;28;20042;-86
2021/12/20 07:42:05;;;;;;;35.17;30.88;;;;;;;1.73;72.10;100880.69;4968365;28;20046;-85
2021/12/20 07:44:35;;;;;;;37.03;31.53;;;;;;;3.29;72.42;101130.81;4968547;28;20101;-87
2021/12/20 07:47:05;;;;;;;35.75;31.38;;;;;;;2.42;72.19;101004.84;4968179;28;20090;-85
2021/12/20 07:49:34;;;;;;;34.97;31.27;;;;;;;2.19;71.95;100949.16;4968426;28;20518;-85
2021/12/20 07:52:02;;;;;;;36.53;32.38;;;;;;;1.88;72.06;100900.03;4986299;28;20062;-85
2021/12/20 07:54:29;;;;;;;39.13;33.88;;;;;;;2.11;71.78;100914.63;4969267;28;20726;-86
2021/12/20 07:56:56;;;;;;;35.43;31.63;;;;;;;2.60;72.15;100988.22;4986680;28;20057;-84
2021/12/20 07:59:24;;;;;;;37.90;30.88;;;;;;;3.81;72.24;101185.91;4969439;28;20070;-85
2021/12/20 08:01:51;;;;;;;37.53;32.40;;;;;;;2.61;72.40;100989.06;4969049;28;20108;-85
2021/12/20 08:04:17;;;;;;;38.72;30.92;;;;;;;2.24;72.13;100926.22;4969290;28;20057;-87
2021/12/20 08:06:45;;;;;;;35.03;31.13;;;;;;;2.75;71.86;100999.72;4978027;28;20101;-86
2021/12/20 08:09:14;;;;;;;36.80;32.77;;;;;;;2.96;72.59;101022.25;4986197;28;20483;-84
2021/12/20 08:11:42;;;;;;;36.70;32.77;;;;;;;3.49;71.71;101124.53;4985577;28;20059;-86
2021/12/20 08:14:09;;;;;;;34.75;30.95;;;;;;;2.61;71.79;100952.38;4985761;28;20683;-86
2021/12/20 08:16:36;;;;;;;36.40;32.20;;;;;;;2.92;71.71;101010.19;4985394;28;20337;-84
2021/12/20 08:19:03;;;;;;;37.38;31.35;;;;;;;3.34;72.14;101064.03;4986434;28;20046;-85
2021/12/20 08:21:30;;;;;;;35.75;29.52;;;;;;;3.54;71.70;101089.25;4986461;28;20152;-85
2021/12/20 08:23:56;;;;;;;35.43;31.37;;;;;;;2.53;71.44;100909.03;4986366;28;20124;-85
2021/12/20 08:26:26;;;;;;;34.28;30.23;;;;;;;4.48;71.50;101227.06;4978309;28;20050;-85
2021/12/20 08:28:56;;;;;;;32.83;29.30;;;;;;;3.71;71.13;101095.41;4971104;28;20066;-86
2021/12/20 08:31:23;;;;;;;33.70;30.00;;;;;;;3.99;71.00;101139.47;4988475;28;20054;-89
2021/12/20 08:33:50;;;;;;;34.60;30.77;;;;;;;3.96;70.93;101127.34;4990221;28;20050;-86
2021/12/20 08:36:16;;;;;;;34.72;28.67;;;;;;;2.81;70.89;100925.97;4989461;28;20105;-87
2021/12/20 08:38:43;;;;;;;34.47;30.77;;;;;;;2.66;70.69;100901.38;4972225;28;20062;-88
2021/12/20 08:41:11;;;;;;;35.33;30.75;;;;;;;4.16;70.06;101152.56;4989350;28;20056;-86
2021/12/20 08:43:39;;;;;;;36.15;31.35;;;;;;;3.67;69.95;101065.84;4971933;28;20046;-87
2021/12/20 08:46:06;;;;;;;35.40;30.33;;;;;;;4.13;70.38;101136.13;4989744;28;20054;-87
2021/12/20 08:48:33;;;;;;;32.67;29.10;;;;;;;3.02;69.54;100952.88;4972577;28;20520;-87
2021/12/20 08:51:01;;;;;;;38.72;30.17;;;;;;;3.46;70.32;101023.19;4971715;28;20065;-85
2021/12/20 08:53:29;;;;;;;31.75;28.35;;;;;;;3.89;69.43;101054.19;4971695;28;20521;-85
2021/12/20 08:55:57;;;;;;;33.92;29.83;;;;;;;3.44;68.79;100985.66;4972320;28;20145;-85
2021/12/20 08:58:24;;;;;;;35.10;31.33;;;;;;;4.35;68.52;101135.81;4971767;28;20556;-87
2021/12/20 09:00:55;;;;;;;35.60;31.70;;;;;;;3.98;68.66;101059.81;4971157;28;20050;-88
2021/12/20 09:03:23;;;;;;;35.10;31.33;;;;;;;4.37;67.80;101119.00;4970963;28;20054;-86
2021/12/20 09:05:50;;;;;;;37.25;33.05;;;;;;;4.15;67.90;101118.47;4972580;28;20046;-86
2021/12/20 09:08:19;;;;;;;39.47;33.70;;;;;;;5.31;68.29;101325.16;4972413;28;20339;-88
2021/12/20 09:10:46;;;;;;;38.50;34.15;;;;;;;4.55;68.10;101187.28;4990049;28;20065;-88
2021/12/20 09:13:14;;;;;;;36.05;31.83;;;;;;;4.76;68.80;101237.84;4972429;28;20050;-87
2021/12/20 09:15:41;;;;;;;37.33;32.70;;;;;;;4.59;68.77;101228.28;4972568;28;20050;-85
2021/12/20 09:18:09;;;;;;;38.00;33.92;;;;;;;5.02;69.33;101320.66;4972466;28;20155;-87
2021/12/20 09:20:36;;;;;;;38.40;33.40;;;;;;;3.59;69.10;101070.63;4990497;28;20054;-86
2021/12/20 09:23:05;;;;;;;40.55;33.75;;;;;;;5.21;68.58;101323.97;4974832;28;20110;-89
2021/12/20 09:25:35;;;;;;;37.15;32.40;;;;;;;5.60;68.54;101356.09;4975774;28;20124;-88
2021/12/20 09:28:05;;;;;;;37.03;32.25;;;;;;;5.65;67.83;101360.16;4971938;28;20104;-88
2021/12/20 09:30:32;;;;;;;39.70;34.97;;;;;;;4.91;67.57;101253.66;4972326;28;20057;-86
2021/12/20 09:33:00;;;;;;;37.15;33.15;;;;;;;4.24;67.03;101099.56;4972836;28;20291;-87
2021/12/20 09:35:27;;;;;;;43.00;35.85;;;;;;;4.58;66.96;101195.00;4989552;28;20078;-84
2021/12/20 09:37:57;;;;;;;36.83;32.80;;;;;;;4.49;67.22;101191.97;4992484;28;20054;-87
2021/12/20 09:40:36;;;;;;;39.78;33.75;;;;;;;5.33;66.63;101283.78;4980156;28;20351;-86
2021/12/20 09:43:13;;;;;;;38.22;33.97;;;;;;;4.22;66.11;101093.53;4976384;28;20068;-86
2021/12/20 09:45:47;;;;;;;39.13;34.40;;;;;;;4.10;66.12;101109.97;4976698;28;20096;-87
2021/12/20 09:48:20;;;;;;;37.60;33.72;;;;;;;5.63;66.75;101391.03;4989923;28;20137;-88
2021/12/20 09:50:52;;;;;;;40.05;34.92;;;;;;;4.80;67.81;101287.59;4971819;28;20391;-86
2021/12/20 09:53:19;;;;;;;38.55;34.35;;;;;;;4.10;68.28;101188.81;4971856;28;20502;-87
2021/12/20 09:55:48;;;;;;;40.00;34.38;;;;;;;5.45;68.27;101413.09;4988951;28;20487;-82
2021/12/20 09:58:15;;;;;;;39.22;34.97;;;;;;;5.45;67.62;101399.94;4988460;28;20054;-88
2021/12/20 10:00:42;;;;;;;41.85;35.45;;;;;;;3.66;67.30;101098.25;4971515;28;20062;-85
2021/12/20 10:03:09;;;;;;;31.42;28.02;;;;;;;4.26;67.86;101237.00;4970896;28;20068;-87
2021/12/20 10:05:36;;;;;;;28.58;25.65;;;;;;;4.08;67.82;101259.84;4971427;28;20054;-85
2021/12/20 10:08:19;;;;;;;30.05;27.05;;;;;;;4.26;68.35;101305.34;4955443;28;20290;-85
2021/12/20 10:10:49;;;;;;;30.27;26.95;;;;;;;4.42;68.24;101316.78;4971706;28;20125;-87
2021/12/20 10:13:28;;;;;;;28.83;25.92;;;;;;;3.89;68.80;101270.44;4971451;28;20284;-86
2021/12/20 10:15:56;;;;;;;28.42;25.65;;;;;;;3.12;68.23;101157.88;4971314;28;20577;-85
2021/12/20 10:18:26;;;;;;;29.27;26.13;;;;;;;3.40;68.74;101236.13;4971591;28;20090;-90
2021/12/20 10:20:55;;;;;;;29.80;26.75;;;;;;;3.60;69.42;101308.66;4971131;28;20489;-85
2021/12/20 10:23:22;;;;;;;26.27;23.75;;;;;;;4.09;69.31;101423.63;4984573;28;20129;-85
2021/12/20 10:25:55;;;;;;;29.73;26.63;;;;;;;4.06;69.60;101409.69;4984522;28;20270;-86
2021/12/20 10:28:34;;;;;;;29.17;25.80;;;;;;;3.34;70.56;101309.88;4988683;28;20062;-85
2021/12/20 10:31:02;;;;;;;;;;;;;;;4.05;71.06;101413.25;4970576;28;20205;-86
2021/12/20 10:33:29;;;;;;;33.95;29.55;;;;;;;3.90;71.04;101403.47;4981600;28;19926;-87
2021/12/20 10:36:00;;;;;;;29.90;26.27;;;;;;;2.79;70.62;101229.38;4987407;28;20532;-85
2021/12/20 10:38:28;;;;;;;37.23;28.57;;;;;;;3.99;70.98;101421.44;4988505;28;20050;-84
2021/12/20 10:40:57;;;;;;;30.45;27.25;;;;;;;4.09;71.14;101418.34;5007970;28;20255;-88
2021/12/20 10:43:35;;;;;;;36.10;29.67;;;;;;;2.90;70.19;101184.28;4989980;28;20053;-87
2021/12/20 10:46:14;;;;;;;29.70;25.73;;;;;;;2.46;70.02;101117.31;4990035;28;20108;-88
2021/12/20 10:48:44;;;;;;;31.42;28.17;;;;;;;3.43;70.68;101293.72;5007711;28;20052;-84
2021/12/20 10:51:21;;;;;;;36.60;29.58;;;;;;;2.30;70.59;101098.81;4989949;28;20565;-86
2021/12/20 10:53:56;;;;;;;30.45;26.92;;;;;;;2.60;70.79;101137.63;4989283;28;20045;-85
2021/12/20 10:56:25;;;;;;;30.48;27.48;;;;;;;3.85;71.54;101331.91;4990087;28;20046;-85
2021/12/20 10:58:54;;;;;;;33.83;30.27;;;;;;;2.81;71.08;101148.84;5007285;28;20060;-84
2021/12/20 11:04:24;;;;;;;31.45;27.92;;;;;;;3.12;70.02;101121.16;5004777;28;20077;-85
2021/12/20 11:09:31;;;;;;;33.60;28.38;;;;;;;3.71;69.74;101240.66;5007419;28;20049;-84
2021/12/20 11:12:00;;;;;;;31.23;27.85;;;;;;;2.86;70.03;101085.69;5007422;28;20104;-86
2021/12/20 11:14:30;;;;;;;32.42;28.85;;;;;;;3.97;70.41;101262.16;4986574;28;20297;-84
2021/12/20 11:16:59;;;;;;;36.78;29.23;;;;;;;4.46;70.12;101339.34;4989294;28;20663;-86
2021/12/20 11:19:30;;;;;;;29.80;26.52;;;;;;;4.70;70.73;101407.38;4989887;28;20132;-86
2021/12/20 11:22:24;;;;;;;32.30;27.47;;;;;;;4.88;70.15;101406.44;4990043;28;20093;-86
2021/12/20 11:24:55;;;;;;;32.97;27.98;;;;;;;4.87;70.88;101402.09;4991077;28;20120;-88
2021/12/20 11:27:25;;;;;;;31.70;28.15;;;;;;;4.91;70.35;101408.91;4972247;28;20054;-84
2021/12/20 11:29:55;;;;;;;31.05;27.67;;;;;;;4.30;70.38;101317.41;4973875;28;20555;-85
2021/12/20 11:32:24;;;;;;;28.15;25.20;;;;;;;3.70;70.01;101196.97;4987179;28;20050;-85
2021/12/20 11:34:51;;;;;;;28.73;25.67;;;;;;;4.93;70.37;101396.53;4970839;28;20046;-86
2021/12/20 11:37:20;;;;;;;31.38;26.80;;;;;;;4.42;70.18;101295.75;4973548;28;20050;-86
2021/12/20 11:39:48;;;;;;;27.95;24.83;;;;;;;4.34;70.37;101297.91;4989775;28;20144;-87
2021/12/20 11:42:16;;;;;;;27.30;24.50;;;;;;;4.45;69.89;101316.63;4988884;28;20050;-87
2021/12/20 11:44:47;;;;;;;26.60;23.90;;;;;;;3.84;70.24;101204.16;4988759;28;20073;-85
2021/12/20 11:47:29;;;;;;;27.02;24.15;;;;;;;4.23;71.31;101302.88;4988965;28;20124;-84